sensor_id;sensor_type;location;lat;lon;timestamp;temperature;humidity
35129;DHT22;21301;43.626;10.580;2023-07-29T00:01:02;23.50;99.90
35129;DHT22;21301;43.626;10.580;2023-07-29T00:03:29;23.70;99.90
35129;DHT22;21301;43.626;10.580;2023-07-29T00:05:58;23.60;99.90
35129;DHT22;21301;43.626;10.580;2023-07-29T00:08:25;23.60;99.90
35129;DHT22;21301;43.626;10.580;2023-07-29T00:10:51;23.80;99.90
35129;DHT22;21301;43.626;10.580;2023-07-29T00:13:17;23.90;99.90
35129;DHT22;21301;43.626;10.580;2023-07-29T00:15:44;23.80;99.90
35129;DHT22;21301;43.626;10.580;2023-07-29T00:18:10;23.90;99.90
35129;DHT22;21301;43.626;10.580;2023-07-29T00:20:36;23.50;99.90
35129;DHT22;21301;43.626;10.580;2023-07-29T00:23:02;23.40;99.90
35129;DHT22;21301;43.626;10.580;2023-07-29T00:25:30;23.10;99.90
35129;DHT22;21301;43.626;10.580;2023-07-29T00:27:56;23.30;99.90
35129;DHT22;21301;43.626;10.580;2023-07-29T00:30:22;23.40;99.90
35129;DHT22;21301;43.626;10.580;2023-07-29T00:32:48;23.20;99.90
35129;DHT22;21301;43.626;10.580;2023-07-29T00:35:14;23.40;99.90
35129;DHT22;21301;43.626;10.580;2023-07-29T00:37:40;23.50;99.90
35129;DHT22;21301;43.626;10.580;2023-07-29T00:40:19;23.50;99.90
35129;DHT22;21301;43.626;10.580;2023-07-29T00:42:47;23.50;99.90
35129;DHT22;21301;43.626;10.580;2023-07-29T00:45:13;23.50;99.90
35129;DHT22;21301;43.626;10.580;2023-07-29T00:47:39;23.40;99.90
35129;DHT22;21301;43.626;10.580;2023-07-29T00:50:07;23.40;99.90
35129;DHT22;21301;43.626;10.580;2023-07-29T00:52:34;23.50;99.90
35129;DHT22;21301;43.626;10.580;2023-07-29T00:55:00;23.60;99.90
35129;DHT22;21301;43.626;10.580;2023-07-29T00:57:26;23.70;99.90
35129;DHT22;21301;43.626;10.580;2023-07-29T00:59:55;23.80;99.90
35129;DHT22;21301;43.626;10.580;2023-07-29T01:02:21;23.60;99.90
35129;DHT22;21301;43.626;10.580;2023-07-29T01:04:57;23.50;99.90
35129;DHT22;21301;43.626;10.580;2023-07-29T01:10:19;23.40;99.90
35129;DHT22;21301;43.626;10.580;2023-07-29T01:15:45;23.40;99.90
35129;DHT22;21301;43.626;10.580;2023-07-29T01:18:21;23.30;99.90
35129;DHT22;21301;43.626;10.580;2023-07-29T01:20:53;23.20;99.90
35129;DHT22;21301;43.626;10.580;2023-07-29T01:23:24;23.40;99.90
35129;DHT22;21301;43.626;10.580;2023-07-29T01:25:51;23.50;99.90
35129;DHT22;21301;43.626;10.580;2023-07-29T01:28:20;23.50;99.90
35129;DHT22;21301;43.626;10.580;2023-07-29T01:30:49;23.50;99.90
35129;DHT22;21301;43.626;10.580;2023-07-29T01:33:29;23.40;99.90
35129;DHT22;21301;43.626;10.580;2023-07-29T01:36:02;23.50;99.90
35129;DHT22;21301;43.626;10.580;2023-07-29T01:38:33;23.20;99.90
35129;DHT22;21301;43.626;10.580;2023-07-29T01:41:04;23.10;99.90
35129;DHT22;21301;43.626;10.580;2023-07-29T01:43:34;22.90;99.90
35129;DHT22;21301;43.626;10.580;2023-07-29T01:46:00;22.80;99.90
35129;DHT22;21301;43.626;10.580;2023-07-29T01:48:26;22.70;99.90
35129;DHT22;21301;43.626;10.580;2023-07-29T01:50:55;22.60;99.90
35129;DHT22;21301;43.626;10.580;2023-07-29T01:53:24;22.40;99.90
35129;DHT22;21301;43.626;10.580;2023-07-29T01:55:51;22.50;99.90
35129;DHT22;21301;43.626;10.580;2023-07-29T01:58:17;22.40;99.90
35129;DHT22;21301;43.626;10.580;2023-07-29T02:00:46;22.40;99.90
35129;DHT22;21301;43.626;10.580;2023-07-29T02:03:12;22.40;99.90
35129;DHT22;21301;43.626;10.580;2023-07-29T02:05:38;22.50;99.90
35129;DHT22;21301;43.626;10.580;2023-07-29T02:08:04;22.50;99.90
35129;DHT22;21301;43.626;10.580;2023-07-29T02:10:30;22.50;99.90
35129;DHT22;21301;43.626;10.580;2023-07-29T02:12:56;22.60;99.90
35129;DHT22;21301;43.626;10.580;2023-07-29T02:15:21;22.60;99.90
35129;DHT22;21301;43.626;10.580;2023-07-29T02:17:49;22.60;99.90
35129;DHT22;21301;43.626;10.580;2023-07-29T02:20:15;22.60;99.90
35129;DHT22;21301;43.626;10.580;2023-07-29T02:22:42;22.50;99.90
35129;DHT22;21301;43.626;10.580;2023-07-29T02:25:08;22.60;99.90
35129;DHT22;21301;43.626;10.580;2023-07-29T02:27:33;22.60;99.90
35129;DHT22;21301;43.626;10.580;2023-07-29T02:29:59;22.70;99.90
35129;DHT22;21301;43.626;10.580;2023-07-29T02:32:25;22.70;99.90
35129;DHT22;21301;43.626;10.580;2023-07-29T02:34:51;22.70;99.90
35129;DHT22;21301;43.626;10.580;2023-07-29T02:37:17;22.70;99.90
35129;DHT22;21301;43.626;10.580;2023-07-29T02:39:43;22.70;99.90
35129;DHT22;21301;43.626;10.580;2023-07-29T02:42:14;22.70;99.90
35129;DHT22;21301;43.626;10.580;2023-07-29T02:44:41;22.80;99.90
35129;DHT22;21301;43.626;10.580;2023-07-29T02:47:13;22.80;99.90
35129;DHT22;21301;43.626;10.580;2023-07-29T02:49:38;22.80;99.90
35129;DHT22;21301;43.626;10.580;2023-07-29T02:52:04;22.80;99.90
35129;DHT22;21301;43.626;10.580;2023-07-29T02:54:30;22.70;99.90
35129;DHT22;21301;43.626;10.580;2023-07-29T02:56:57;22.60;99.90
35129;DHT22;21301;43.626;10.580;2023-07-29T02:59:24;22.40;99.90
35129;DHT22;21301;43.626;10.580;2023-07-29T03:01:51;22.20;99.90
35129;DHT22;21301;43.626;10.580;2023-07-29T03:04:17;22.20;99.90
35129;DHT22;21301;43.626;10.580;2023-07-29T03:06:47;22.20;99.90
35129;DHT22;21301;43.626;10.580;2023-07-29T03:09:22;22.20;99.90
35129;DHT22;21301;43.626;10.580;2023-07-29T03:11:49;22.30;99.90
35129;DHT22;21301;43.626;10.580;2023-07-29T03:14:19;22.30;99.90
35129;DHT22;21301;43.626;10.580;2023-07-29T03:16:46;22.30;99.90
35129;DHT22;21301;43.626;10.580;2023-07-29T03:19:12;22.20;99.90
35129;DHT22;21301;43.626;10.580;2023-07-29T03:21:42;22.10;99.90
35129;DHT22;21301;43.626;10.580;2023-07-29T03:24:08;22.00;99.90
35129;DHT22;21301;43.626;10.580;2023-07-29T03:26:36;22.00;99.90
35129;DHT22;21301;43.626;10.580;2023-07-29T03:29:02;22.00;99.90
35129;DHT22;21301;43.626;10.580;2023-07-29T03:31:28;22.00;99.90
35129;DHT22;21301;43.626;10.580;2023-07-29T03:33:54;22.10;99.90
35129;DHT22;21301;43.626;10.580;2023-07-29T03:36:23;22.10;99.90
35129;DHT22;21301;43.626;10.580;2023-07-29T03:38:51;22.10;99.90
35129;DHT22;21301;43.626;10.580;2023-07-29T03:41:17;22.10;99.90
35129;DHT22;21301;43.626;10.580;2023-07-29T03:43:43;22.10;99.90
35129;DHT22;21301;43.626;10.580;2023-07-29T03:46:08;22.00;99.90
35129;DHT22;21301;43.626;10.580;2023-07-29T03:48:35;22.00;99.90
35129;DHT22;21301;43.626;10.580;2023-07-29T03:51:01;22.00;99.90
35129;DHT22;21301;43.626;10.580;2023-07-29T03:53:26;22.10;99.90
35129;DHT22;21301;43.626;10.580;2023-07-29T03:55:54;22.00;99.90
35129;DHT22;21301;43.626;10.580;2023-07-29T03:58:21;21.90;99.90
35129;DHT22;21301;43.626;10.580;2023-07-29T04:00:47;21.90;99.90
35129;DHT22;21301;43.626;10.580;2023-07-29T04:03:13;21.80;99.90
35129;DHT22;21301;43.626;10.580;2023-07-29T04:05:39;21.80;99.90
35129;DHT22;21301;43.626;10.580;2023-07-29T04:08:05;21.70;99.90
35129;DHT22;21301;43.626;10.580;2023-07-29T04:10:31;21.70;99.90
35129;DHT22;21301;43.626;10.580;2023-07-29T04:12:58;21.70;99.90
35129;DHT22;21301;43.626;10.580;2023-07-29T04:15:25;21.70;99.90
35129;DHT22;21301;43.626;10.580;2023-07-29T04:17:51;21.70;99.90
35129;DHT22;21301;43.626;10.580;2023-07-29T04:20:17;21.80;99.90
35129;DHT22;21301;43.626;10.580;2023-07-29T04:22:44;21.90;99.90
35129;DHT22;21301;43.626;10.580;2023-07-29T04:25:11;21.90;99.90
35129;DHT22;21301;43.626;10.580;2023-07-29T04:27:41;22.00;99.90
35129;DHT22;21301;43.626;10.580;2023-07-29T04:30:10;22.00;99.90
35129;DHT22;21301;43.626;10.580;2023-07-29T04:32:36;22.10;99.90
35129;DHT22;21301;43.626;10.580;2023-07-29T04:35:14;22.20;99.90
35129;DHT22;21301;43.626;10.580;2023-07-29T04:37:48;22.10;99.90
35129;DHT22;21301;43.626;10.580;2023-07-29T04:40:14;22.20;99.90
35129;DHT22;21301;43.626;10.580;2023-07-29T04:42:41;22.30;99.90
35129;DHT22;21301;43.626;10.580;2023-07-29T04:45:08;22.50;99.90
35129;DHT22;21301;43.626;10.580;2023-07-29T04:47:34;22.70;99.90
35129;DHT22;21301;43.626;10.580;2023-07-29T04:50:03;23.00;99.90
35129;DHT22;21301;43.626;10.580;2023-07-29T04:52:29;23.20;99.90
35129;DHT22;21301;43.626;10.580;2023-07-29T04:54:56;23.40;99.90
35129;DHT22;21301;43.626;10.580;2023-07-29T04:57:24;23.50;99.90
35129;DHT22;21301;43.626;10.580;2023-07-29T04:59:50;23.70;99.90
35129;DHT22;21301;43.626;10.580;2023-07-29T05:02:16;23.70;99.90
35129;DHT22;21301;43.626;10.580;2023-07-29T05:04:43;23.60;99.90
35129;DHT22;21301;43.626;10.580;2023-07-29T05:07:09;23.50;99.90
35129;DHT22;21301;43.626;10.580;2023-07-29T05:09:37;23.30;99.90
35129;DHT22;21301;43.626;10.580;2023-07-29T05:12:04;23.20;99.90
35129;DHT22;21301;43.626;10.580;2023-07-29T05:14:30;23.10;99.90
35129;DHT22;21301;43.626;10.580;2023-07-29T05:16:56;22.90;99.90
35129;DHT22;21301;43.626;10.580;2023-07-29T05:19:22;22.90;99.90
35129;DHT22;21301;43.626;10.580;2023-07-29T05:24:57;22.70;99.90
35129;DHT22;21301;43.626;10.580;2023-07-29T05:27:23;22.60;99.90
35129;DHT22;21301;43.626;10.580;2023-07-29T05:29:48;22.80;99.90
35129;DHT22;21301;43.626;10.580;2023-07-29T05:32:15;23.10;99.90
35129;DHT22;21301;43.626;10.580;2023-07-29T05:34:41;23.40;99.90
35129;DHT22;21301;43.626;10.580;2023-07-29T05:37:09;23.70;99.90
35129;DHT22;21301;43.626;10.580;2023-07-29T05:39:37;23.90;99.90
35129;DHT22;21301;43.626;10.580;2023-07-29T05:42:04;23.70;99.90
35129;DHT22;21301;43.626;10.580;2023-07-29T05:44:31;23.80;99.90
35129;DHT22;21301;43.626;10.580;2023-07-29T05:46:57;23.90;99.90
35129;DHT22;21301;43.626;10.580;2023-07-29T05:49:23;24.30;99.90
35129;DHT22;21301;43.626;10.580;2023-07-29T05:51:51;24.60;99.90
35129;DHT22;21301;43.626;10.580;2023-07-29T05:54:18;25.20;99.90
35129;DHT22;21301;43.626;10.580;2023-07-29T05:56:46;25.20;99.90
35129;DHT22;21301;43.626;10.580;2023-07-29T05:59:12;25.40;99.90
35129;DHT22;21301;43.626;10.580;2023-07-29T06:01:38;25.20;99.90
35129;DHT22;21301;43.626;10.580;2023-07-29T06:04:04;25.30;99.90
35129;DHT22;21301;43.626;10.580;2023-07-29T06:06:30;25.30;99.90
35129;DHT22;21301;43.626;10.580;2023-07-29T06:08:55;25.40;99.90
35129;DHT22;21301;43.626;10.580;2023-07-29T06:11:21;25.40;99.90
35129;DHT22;21301;43.626;10.580;2023-07-29T06:13:49;25.70;99.90
35129;DHT22;21301;43.626;10.580;2023-07-29T06:16:16;25.90;99.90
35129;DHT22;21301;43.626;10.580;2023-07-29T06:18:42;26.10;99.90
35129;DHT22;21301;43.626;10.580;2023-07-29T06:21:08;26.10;99.90
35129;DHT22;21301;43.626;10.580;2023-07-29T06:23:38;26.10;99.90
35129;DHT22;21301;43.626;10.580;2023-07-29T06:26:03;26.40;99.90
35129;DHT22;21301;43.626;10.580;2023-07-29T06:28:29;26.70;99.90
35129;DHT22;21301;43.626;10.580;2023-07-29T06:30:56;26.90;99.90
35129;DHT22;21301;43.626;10.580;2023-07-29T06:33:22;27.10;99.90
35129;DHT22;21301;43.626;10.580;2023-07-29T06:35:48;27.20;99.90
35129;DHT22;21301;43.626;10.580;2023-07-29T06:38:14;27.50;99.90
35129;DHT22;21301;43.626;10.580;2023-07-29T06:40:44;27.50;99.90
35129;DHT22;21301;43.626;10.580;2023-07-29T06:43:10;27.70;99.90
35129;DHT22;21301;43.626;10.580;2023-07-29T06:45:36;27.80;99.90
35129;DHT22;21301;43.626;10.580;2023-07-29T06:48:02;28.00;99.90
35129;DHT22;21301;43.626;10.580;2023-07-29T06:50:28;28.20;99.90
35129;DHT22;21301;43.626;10.580;2023-07-29T06:52:53;28.30;98.60
35129;DHT22;21301;43.626;10.580;2023-07-29T06:55:20;28.40;95.40
35129;DHT22;21301;43.626;10.580;2023-07-29T06:57:46;28.80;74.90
35129;DHT22;21301;43.626;10.580;2023-07-29T07:00:12;29.10;99.90
35129;DHT22;21301;43.626;10.580;2023-07-29T07:02:38;28.70;95.50
35129;DHT22;21301;43.626;10.580;2023-07-29T07:05:04;29.20;99.90
35129;DHT22;21301;43.626;10.580;2023-07-29T07:07:30;29.30;1.00
35129;DHT22;21301;43.626;10.580;2023-07-29T07:09:56;29.20;99.90
35129;DHT22;21301;43.626;10.580;2023-07-29T07:12:25;29.70;99.90
35129;DHT22;21301;43.626;10.580;2023-07-29T07:14:51;30.00;99.90
35129;DHT22;21301;43.626;10.580;2023-07-29T07:17:19;29.70;99.90
35129;DHT22;21301;43.626;10.580;2023-07-29T07:19:46;30.10;99.90
35129;DHT22;21301;43.626;10.580;2023-07-29T07:22:12;30.50;1.00
35129;DHT22;21301;43.626;10.580;2023-07-29T07:24:39;30.80;99.90
35129;DHT22;21301;43.626;10.580;2023-07-29T07:27:05;31.00;99.90
35129;DHT22;21301;43.626;10.580;2023-07-29T07:29:30;31.20;1.00
35129;DHT22;21301;43.626;10.580;2023-07-29T07:31:56;31.00;99.90
35129;DHT22;21301;43.626;10.580;2023-07-29T07:34:22;30.70;99.90
35129;DHT22;21301;43.626;10.580;2023-07-29T07:36:49;31.30;99.90
35129;DHT22;21301;43.626;10.580;2023-07-29T07:39:15;31.20;99.90
35129;DHT22;21301;43.626;10.580;2023-07-29T07:41:42;31.10;99.90
35129;DHT22;21301;43.626;10.580;2023-07-29T07:44:08;31.40;55.70
35129;DHT22;21301;43.626;10.580;2023-07-29T07:46:35;31.50;99.90
35129;DHT22;21301;43.626;10.580;2023-07-29T07:49:01;31.90;99.90
35129;DHT22;21301;43.626;10.580;2023-07-29T07:51:27;32.30;76.30
35129;DHT22;21301;43.626;10.580;2023-07-29T07:53:52;32.70;99.90
35129;DHT22;21301;43.626;10.580;2023-07-29T07:56:19;32.10;99.90
35129;DHT22;21301;43.626;10.580;2023-07-29T07:58:45;32.60;99.90
35129;DHT22;21301;43.626;10.580;2023-07-29T08:01:11;33.10;99.90
35129;DHT22;21301;43.626;10.580;2023-07-29T08:03:40;32.90;99.90
35129;DHT22;21301;43.626;10.580;2023-07-29T08:06:32;32.80;58.20
35129;DHT22;21301;43.626;10.580;2023-07-29T08:08:59;32.50;99.90
35129;DHT22;21301;43.626;10.580;2023-07-29T08:11:26;32.30;27.80
35129;DHT22;21301;43.626;10.580;2023-07-29T08:13:53;32.70;1.00
35129;DHT22;21301;43.626;10.580;2023-07-29T08:16:21;32.70;99.90
35129;DHT22;21301;43.626;10.580;2023-07-29T08:18:50;33.10;99.90
35129;DHT22;21301;43.626;10.580;2023-07-29T08:21:48;33.50;99.90
35129;DHT22;21301;43.626;10.580;2023-07-29T08:24:24;34.10;99.90
35129;DHT22;21301;43.626;10.580;2023-07-29T08:26:50;34.40;99.90
35129;DHT22;21301;43.626;10.580;2023-07-29T08:29:17;34.50;99.90
35129;DHT22;21301;43.626;10.580;2023-07-29T08:31:50;34.70;99.90
35129;DHT22;21301;43.626;10.580;2023-07-29T08:34:17;34.50;99.90
35129;DHT22;21301;43.626;10.580;2023-07-29T08:36:46;33.90;99.90
35129;DHT22;21301;43.626;10.580;2023-07-29T08:39:16;33.80;99.90
35129;DHT22;21301;43.626;10.580;2023-07-29T08:41:54;33.60;99.90
35129;DHT22;21301;43.626;10.580;2023-07-29T08:44:26;33.00;99.90
35129;DHT22;21301;43.626;10.580;2023-07-29T08:46:56;32.80;99.90
35129;DHT22;21301;43.626;10.580;2023-07-29T08:49:28;32.50;99.90
35129;DHT22;21301;43.626;10.580;2023-07-29T08:51:57;31.80;99.90
35129;DHT22;21301;43.626;10.580;2023-07-29T08:54:25;31.60;99.90
35129;DHT22;21301;43.626;10.580;2023-07-29T08:56:58;31.60;1.00
35129;DHT22;21301;43.626;10.580;2023-07-29T08:59:28;31.00;84.20
35129;DHT22;21301;43.626;10.580;2023-07-29T09:01:59;31.00;99.90
35129;DHT22;21301;43.626;10.580;2023-07-29T09:04:26;30.60;99.90
35129;DHT22;21301;43.626;10.580;2023-07-29T09:06:58;30.40;99.90
35129;DHT22;21301;43.626;10.580;2023-07-29T09:09:27;30.10;99.90
35129;DHT22;21301;43.626;10.580;2023-07-29T09:11:55;29.60;1.00
35129;DHT22;21301;43.626;10.580;2023-07-29T09:14:26;30.10;99.90
35129;DHT22;21301;43.626;10.580;2023-07-29T09:17:06;31.30;99.90
35129;DHT22;21301;43.626;10.580;2023-07-29T09:19:38;31.90;99.90
35129;DHT22;21301;43.626;10.580;2023-07-29T09:22:04;32.40;42.60
35129;DHT22;21301;43.626;10.580;2023-07-29T09:24:30;32.00;1.00
35129;DHT22;21301;43.626;10.580;2023-07-29T09:26:57;32.30;1.00
35129;DHT22;21301;43.626;10.580;2023-07-29T09:29:23;32.30;99.90
35129;DHT22;21301;43.626;10.580;2023-07-29T09:31:49;32.80;99.90
35129;DHT22;21301;43.626;10.580;2023-07-29T09:34:15;32.90;99.90
35129;DHT22;21301;43.626;10.580;2023-07-29T09:36:43;33.10;99.90
35129;DHT22;21301;43.626;10.580;2023-07-29T09:39:12;33.20;99.90
35129;DHT22;21301;43.626;10.580;2023-07-29T09:41:41;32.40;99.90
35129;DHT22;21301;43.626;10.580;2023-07-29T09:44:12;32.90;99.90
35129;DHT22;21301;43.626;10.580;2023-07-29T09:46:39;32.70;99.90
35129;DHT22;21301;43.626;10.580;2023-07-29T09:49:07;32.70;99.90
35129;DHT22;21301;43.626;10.580;2023-07-29T09:51:42;32.70;99.90
35129;DHT22;21301;43.626;10.580;2023-07-29T09:54:10;32.70;99.90
35129;DHT22;21301;43.626;10.580;2023-07-29T09:56:39;32.30;99.90
35129;DHT22;21301;43.626;10.580;2023-07-29T09:59:06;32.10;99.90
35129;DHT22;21301;43.626;10.580;2023-07-29T10:01:32;32.30;99.90
35129;DHT22;21301;43.626;10.580;2023-07-29T10:04:04;32.50;99.90
35129;DHT22;21301;43.626;10.580;2023-07-29T10:06:30;32.50;99.90
35129;DHT22;21301;43.626;10.580;2023-07-29T10:08:55;32.80;99.90
35129;DHT22;21301;43.626;10.580;2023-07-29T10:11:21;32.70;99.90
35129;DHT22;21301;43.626;10.580;2023-07-29T10:13:48;32.30;99.90
35129;DHT22;21301;43.626;10.580;2023-07-29T10:16:15;32.30;99.90
35129;DHT22;21301;43.626;10.580;2023-07-29T10:18:42;32.60;99.90
35129;DHT22;21301;43.626;10.580;2023-07-29T10:21:09;32.70;99.90
35129;DHT22;21301;43.626;10.580;2023-07-29T10:23:43;31.70;99.90
35129;DHT22;21301;43.626;10.580;2023-07-29T10:26:10;31.00;50.30
35129;DHT22;21301;43.626;10.580;2023-07-29T10:28:40;32.10;99.90
35129;DHT22;21301;43.626;10.580;2023-07-29T10:31:06;32.50;99.90
35129;DHT22;21301;43.626;10.580;2023-07-29T10:33:34;33.20;99.90
35129;DHT22;21301;43.626;10.580;2023-07-29T10:36:00;32.80;99.90
35129;DHT22;21301;43.626;10.580;2023-07-29T10:38:26;33.00;99.90
35129;DHT22;21301;43.626;10.580;2023-07-29T10:40:56;33.50;99.90
35129;DHT22;21301;43.626;10.580;2023-07-29T10:43:26;33.60;99.90
35129;DHT22;21301;43.626;10.580;2023-07-29T10:45:53;33.60;99.90
35129;DHT22;21301;43.626;10.580;2023-07-29T10:51:26;34.10;99.90
35129;DHT22;21301;43.626;10.580;2023-07-29T10:53:57;34.00;99.90
35129;DHT22;21301;43.626;10.580;2023-07-29T10:56:27;33.60;99.90
35129;DHT22;21301;43.626;10.580;2023-07-29T10:58:56;33.80;99.90
35129;DHT22;21301;43.626;10.580;2023-07-29T11:01:31;33.90;99.90
35129;DHT22;21301;43.626;10.580;2023-07-29T11:12:49;33.70;99.90
35129;DHT22;21301;43.626;10.580;2023-07-29T11:15:26;33.70;99.90
35129;DHT22;21301;43.626;10.580;2023-07-29T11:20:22;33.90;99.90
35129;DHT22;21301;43.626;10.580;2023-07-29T11:22:48;34.60;99.90
35129;DHT22;21301;43.626;10.580;2023-07-29T11:25:15;34.10;99.90
35129;DHT22;21301;43.626;10.580;2023-07-29T11:27:42;34.00;99.90
35129;DHT22;21301;43.626;10.580;2023-07-29T11:30:10;33.40;99.90
35129;DHT22;21301;43.626;10.580;2023-07-29T11:32:36;33.60;99.90
35129;DHT22;21301;43.626;10.580;2023-07-29T11:35:13;33.40;99.90
35129;DHT22;21301;43.626;10.580;2023-07-29T11:37:43;34.10;99.90
35129;DHT22;21301;43.626;10.580;2023-07-29T11:40:09;34.60;99.90
35129;DHT22;21301;43.626;10.580;2023-07-29T11:42:38;34.50;99.90
35129;DHT22;21301;43.626;10.580;2023-07-29T11:45:07;34.10;99.90
35129;DHT22;21301;43.626;10.580;2023-07-29T11:47:34;33.60;99.90
35129;DHT22;21301;43.626;10.580;2023-07-29T11:50:07;33.50;99.90
35129;DHT22;21301;43.626;10.580;2023-07-29T11:52:35;32.80;99.90
35129;DHT22;21301;43.626;10.580;2023-07-29T11:55:04;32.20;99.90
35129;DHT22;21301;43.626;10.580;2023-07-29T11:57:31;33.10;99.90
35129;DHT22;21301;43.626;10.580;2023-07-29T11:59:59;33.40;99.90
35129;DHT22;21301;43.626;10.580;2023-07-29T12:02:25;33.30;99.90
35129;DHT22;21301;43.626;10.580;2023-07-29T12:04:51;33.40;99.90
35129;DHT22;21301;43.626;10.580;2023-07-29T12:07:18;33.60;99.90
35129;DHT22;21301;43.626;10.580;2023-07-29T12:09:46;33.40;99.90
35129;DHT22;21301;43.626;10.580;2023-07-29T12:12:12;33.90;99.90
35129;DHT22;21301;43.626;10.580;2023-07-29T12:14:37;33.70;99.90
35129;DHT22;21301;43.626;10.580;2023-07-29T12:17:05;34.00;99.90
35129;DHT22;21301;43.626;10.580;2023-07-29T12:19:37;34.40;99.90
35129;DHT22;21301;43.626;10.580;2023-07-29T12:22:05;34.50;99.90
35129;DHT22;21301;43.626;10.580;2023-07-29T12:24:33;34.00;99.90
35129;DHT22;21301;43.626;10.580;2023-07-29T12:26:59;34.00;99.90
35129;DHT22;21301;43.626;10.580;2023-07-29T12:29:26;34.00;99.90
35129;DHT22;21301;43.626;10.580;2023-07-29T12:32:02;33.80;99.90
35129;DHT22;21301;43.626;10.580;2023-07-29T12:34:29;33.40;99.90
35129;DHT22;21301;43.626;10.580;2023-07-29T12:36:56;33.40;99.90
35129;DHT22;21301;43.626;10.580;2023-07-29T12:39:32;33.50;99.90
35129;DHT22;21301;43.626;10.580;2023-07-29T12:41:59;33.50;99.90
35129;DHT22;21301;43.626;10.580;2023-07-29T12:44:28;33.50;99.90
35129;DHT22;21301;43.626;10.580;2023-07-29T12:46:54;33.60;99.90
35129;DHT22;21301;43.626;10.580;2023-07-29T12:49:20;33.60;99.90
35129;DHT22;21301;43.626;10.580;2023-07-29T12:51:47;33.80;99.90
35129;DHT22;21301;43.626;10.580;2023-07-29T12:54:14;34.10;99.90
35129;DHT22;21301;43.626;10.580;2023-07-29T12:56:40;33.80;99.90
35129;DHT22;21301;43.626;10.580;2023-07-29T12:59:06;33.40;99.90
35129;DHT22;21301;43.626;10.580;2023-07-29T13:01:31;33.70;99.90
35129;DHT22;21301;43.626;10.580;2023-07-29T13:03:58;33.40;99.90
35129;DHT22;21301;43.626;10.580;2023-07-29T13:06:24;33.70;99.90
35129;DHT22;21301;43.626;10.580;2023-07-29T13:08:50;33.80;99.90
35129;DHT22;21301;43.626;10.580;2023-07-29T13:11:16;33.60;99.90
35129;DHT22;21301;43.626;10.580;2023-07-29T13:13:42;33.20;99.90
35129;DHT22;21301;43.626;10.580;2023-07-29T13:16:09;33.40;99.90
35129;DHT22;21301;43.626;10.580;2023-07-29T13:18:35;33.50;99.90
35129;DHT22;21301;43.626;10.580;2023-07-29T13:21:00;33.50;99.90
35129;DHT22;21301;43.626;10.580;2023-07-29T13:23:26;32.90;99.90
35129;DHT22;21301;43.626;10.580;2023-07-29T13:25:53;33.40;99.90
35129;DHT22;21301;43.626;10.580;2023-07-29T13:28:19;33.40;99.90
35129;DHT22;21301;43.626;10.580;2023-07-29T13:30:49;33.40;99.90
35129;DHT22;21301;43.626;10.580;2023-07-29T13:33:15;32.90;99.90
35129;DHT22;21301;43.626;10.580;2023-07-29T13:35:42;33.30;99.90
35129;DHT22;21301;43.626;10.580;2023-07-29T13:38:09;33.40;99.90
35129;DHT22;21301;43.626;10.580;2023-07-29T13:40:36;33.40;99.90
35129;DHT22;21301;43.626;10.580;2023-07-29T13:43:02;33.40;99.90
35129;DHT22;21301;43.626;10.580;2023-07-29T13:45:28;33.20;99.90
35129;DHT22;21301;43.626;10.580;2023-07-29T13:47:54;33.20;99.90
35129;DHT22;21301;43.626;10.580;2023-07-29T13:50:20;33.10;99.90
35129;DHT22;21301;43.626;10.580;2023-07-29T13:52:46;32.90;99.90
35129;DHT22;21301;43.626;10.580;2023-07-29T13:55:21;33.10;99.90
35129;DHT22;21301;43.626;10.580;2023-07-29T13:57:46;32.70;99.90
35129;DHT22;21301;43.626;10.580;2023-07-29T14:00:14;32.40;99.90
35129;DHT22;21301;43.626;10.580;2023-07-29T14:02:40;32.00;99.90
35129;DHT22;21301;43.626;10.580;2023-07-29T14:05:07;31.90;99.90
35129;DHT22;21301;43.626;10.580;2023-07-29T14:07:34;31.80;99.90
35129;DHT22;21301;43.626;10.580;2023-07-29T14:10:00;31.90;99.90
35129;DHT22;21301;43.626;10.580;2023-07-29T14:12:26;31.90;99.90
35129;DHT22;21301;43.626;10.580;2023-07-29T14:14:51;32.10;99.90
35129;DHT22;21301;43.626;10.580;2023-07-29T14:17:17;31.90;99.90
35129;DHT22;21301;43.626;10.580;2023-07-29T14:19:43;32.00;99.90
35129;DHT22;21301;43.626;10.580;2023-07-29T14:22:11;31.90;99.90
35129;DHT22;21301;43.626;10.580;2023-07-29T14:24:39;31.80;99.90
35129;DHT22;21301;43.626;10.580;2023-07-29T14:27:05;32.00;99.90
35129;DHT22;21301;43.626;10.580;2023-07-29T14:29:31;31.80;99.90
35129;DHT22;21301;43.626;10.580;2023-07-29T14:31:57;31.30;99.90
35129;DHT22;21301;43.626;10.580;2023-07-29T14:34:23;31.40;99.90
35129;DHT22;21301;43.626;10.580;2023-07-29T14:36:51;31.40;99.90
35129;DHT22;21301;43.626;10.580;2023-07-29T14:39:58;31.50;99.90
35129;DHT22;21301;43.626;10.580;2023-07-29T14:42:26;31.50;99.90
35129;DHT22;21301;43.626;10.580;2023-07-29T14:44:53;31.30;99.90
35129;DHT22;21301;43.626;10.580;2023-07-29T14:47:20;31.60;99.90
35129;DHT22;21301;43.626;10.580;2023-07-29T14:49:45;31.80;99.90
35129;DHT22;21301;43.626;10.580;2023-07-29T14:52:14;32.10;99.90
35129;DHT22;21301;43.626;10.580;2023-07-29T14:54:51;32.10;99.90
35129;DHT22;21301;43.626;10.580;2023-07-29T14:57:18;31.90;99.90
35129;DHT22;21301;43.626;10.580;2023-07-29T14:59:46;32.20;99.90
35129;DHT22;21301;43.626;10.580;2023-07-29T15:02:12;32.30;99.90
35129;DHT22;21301;43.626;10.580;2023-07-29T15:04:38;32.40;99.90
35129;DHT22;21301;43.626;10.580;2023-07-29T15:07:06;32.20;99.90
35129;DHT22;21301;43.626;10.580;2023-07-29T15:09:32;31.80;99.90
35129;DHT22;21301;43.626;10.580;2023-07-29T15:11:58;32.00;99.90
35129;DHT22;21301;43.626;10.580;2023-07-29T15:14:24;31.60;99.90
35129;DHT22;21301;43.626;10.580;2023-07-29T15:16:49;31.90;1.00
35129;DHT22;21301;43.626;10.580;2023-07-29T15:19:16;32.20;99.90
35129;DHT22;21301;43.626;10.580;2023-07-29T15:21:42;31.60;99.90
35129;DHT22;21301;43.626;10.580;2023-07-29T15:24:25;31.90;99.90
35129;DHT22;21301;43.626;10.580;2023-07-29T15:26:50;32.10;99.90
35129;DHT22;21301;43.626;10.580;2023-07-29T15:29:16;32.20;99.90
35129;DHT22;21301;43.626;10.580;2023-07-29T15:31:46;32.20;99.90
35129;DHT22;21301;43.626;10.580;2023-07-29T15:34:12;32.60;99.90
35129;DHT22;21301;43.626;10.580;2023-07-29T15:36:39;32.60;99.90
35129;DHT22;21301;43.626;10.580;2023-07-29T15:39:07;32.30;99.90
35129;DHT22;21301;43.626;10.580;2023-07-29T15:41:35;32.40;99.90
35129;DHT22;21301;43.626;10.580;2023-07-29T15:44:02;32.40;99.90